Latest Weather Observations for Williamtown

IDN60801

Issued at 7:05 am EST Wednesday 3 September 2014 (issued every 30 minutes, with the page automatically refreshed every 10 minutes)

About weather observations | Map of weather stations | Latest weather observations for NSW | Other Formats
Station Details ID: 061078 Name: WILLIAMTOWN RAAF Lat: -32.79 Lon: 151.84 Height: 9.0 m
Data from the previous 72 hours. | See also: Recent months at Williamtown
Date/Time
EST
Temp
°C
App
Temp
°C
Dew
Point
Rel
Hum
%
Delta-T
°C
Wind Press
QNH
hPa
Press
MSL
hPa
Rain
since 9 am
mm
Dir
 
Spd
km/h
Gust
km/h
Spd
kts
Gust
kts
03/07:00am 11.2 3.2 1.8 52 4.0 WSW 33 54 18 29 1011.1 - 3.2
03/06:52am 11.0 3.3 2.1 54 3.8 WSW 32 52 17 28 1011.2 - 3.2
03/06:30am 11.0 3.6 1.8 53 3.9 WSW 30 43 16 23 1010.6 - 3.2
03/06:07am 10.9 2.6 2.0 54 3.8 WSW 35 54 19 29 1010.2 - 3.2
03/06:00am 10.4 2.6 2.7 59 3.3 W 33 46 18 25 1010.0 1010.1 3.2
03/05:33am 11.3 3.5 1.6 51 4.1 WSW 32 50 17 27 1009.9 - 3.2
03/05:30am 11.3 3.5 1.6 51 4.1 WSW 32 44 17 24 1009.7 - 3.2
03/05:00am 11.1 2.8 2.2 54 3.8 WSW 35 54 19 29 1009.7 - 3.2
03/04:30am 11.0 3.3 2.4 55 3.7 WSW 32 52 17 28 1009.5 - 3.2
03/04:03am 10.9 3.0 2.5 56 3.6 WSW 33 52 18 28 1009.5 - 3.2
03/04:00am 10.9 2.7 2.5 56 3.6 WSW 35 52 19 28 1009.4 - 3.2
03/03:57am 10.6 2.8 3.0 59 3.3 WSW 33 52 18 28 1009.3 - 3.2
03/03:30am 10.5 2.4 3.4 61 3.1 WSW 35 48 19 26 1009.1 - 3.2
03/03:05am 10.4 2.0 3.6 63 3.0 WSW 37 56 20 30 1008.9 - 3.2
03/03:00am 10.5 1.7 3.7 63 3.0 WSW 39 56 21 30 1009.0 1009.1 3.2
03/02:30am 10.7 1.8 3.1 59 3.3 WSW 39 57 21 31 1009.2 - 3.2
03/02:00am 10.7 1.9 3.4 60 3.2 WSW 39 59 21 32 1009.5 - 3.2
03/01:30am 10.4 2.7 3.6 63 3.0 W 33 52 18 28 1009.9 - 3.2
03/01:00am 10.0 2.4 3.9 66 2.7 W 33 54 18 29 1010.3 - 3.2
03/12:53am 10.0 2.4 3.9 66 2.7 W 33 54 18 29 1010.4 - 3.2
03/12:30am 9.9 2.9 4.0 67 2.6 WSW 30 44 16 24 1010.6 - 3.2
03/12:00am 9.6 2.2 4.9 72 2.1 W 33 46 18 25 1010.7 1010.8 3.2
 
Date/Time
EST
Temp
°C
App
Temp
°C
Dew
Point
Rel
Hum
%
Delta-T
°C
Wind Press
QNH
hPa
Press
MSL
hPa
Rain
since 9 am
mm
Dir
 
Spd
km/h
Gust
km/h
Spd
kts
Gust
kts
02/11:34pm 9.8 3.1 5.4 74 2.0 WSW 30 50 16 27 1010.8 - 3.2
02/11:30pm 9.7 3.0 5.5 75 1.9 WSW 30 41 16 22 1010.8 - 3.2
02/11:05pm 10.7 2.7 5.5 70 2.4 WSW 37 56 20 30 1010.9 - 3.2
02/11:00pm 11.2 3.0 4.8 64 2.9 WSW 37 54 20 29 1010.8 - 3.2
02/10:48pm 11.7 4.2 4.4 61 3.3 WSW 33 52 18 28 1010.8 - 3.2
02/10:30pm 12.0 4.4 4.0 58 3.6 WSW 33 48 18 26 1010.6 - 3.2
02/10:28pm 12.0 4.0 4.0 58 3.6 WSW 35 48 19 26 1010.6 - 3.2
02/10:00pm 11.4 6.1 5.1 65 2.9 W 22 30 12 16 1010.4 - 3.2
02/09:30pm 11.5 6.2 5.2 65 2.9 W 22 30 12 16 1010.5 - 3.2
02/09:00pm 11.6 6.9 6.1 69 2.6 W 20 28 11 15 1010.5 1010.6 3.2
02/08:30pm 10.7 6.4 7.1 78 1.7 WNW 19 28 10 15 1010.3 - 3.2
02/08:00pm 10.5 6.6 6.9 78 1.7 W 17 20 9 11 1010.3 - 3.2
02/07:30pm 10.9 7.3 6.9 76 1.9 W 15 19 8 10 1010.2 - 3.2
02/07:00pm 10.6 7.6 7.7 82 1.4 W 13 19 7 10 1009.8 - 3.2
02/06:30pm 10.8 7.9 8.1 83 1.3 WSW 13 19 7 10 1009.8 - 3.0
02/06:00pm 11.0 6.2 7.5 79 1.7 SW 22 32 12 17 1009.7 1009.8 3.0
02/05:30pm 12.6 8.1 6.8 68 2.8 SSW 20 30 11 16 1008.5 - 2.8
02/05:00pm 13.8 11.6 10.8 82 1.6 WSW 13 17 7 9 1008.5 - 1.8
02/04:49pm 14.2 12.4 9.5 73 2.4 S 9 11 5 6 1008.0 - 1.8
02/04:30pm 14.4 12.9 10.6 78 2.0 S 9 11 5 6 1007.8 - 1.8
02/04:00pm 14.7 14.7 11.1 79 1.9 NNW 2 7 1 4 1007.8 - 1.8
02/03:30pm 14.1 12.0 11.3 83 1.5 WSW 13 17 7 9 1008.0 - 1.6
02/03:22pm 14.4 12.7 11.2 81 1.7 SW 11 15 6 8 1007.7 - 1.4
02/03:00pm 14.5 13.5 11.1 80 1.8 W 7 11 4 6 1007.6 1007.7 1.4
02/02:30pm 13.7 11.6 11.3 85 1.3 W 13 15 7 8 1007.9 - 1.4
02/02:00pm 13.3 11.0 11.8 91 0.8 WNW 15 20 8 11 1007.6 - 1.4
02/01:30pm 12.4 7.4 11.1 92 0.7 NW 28 33 15 18 1007.7 - 1.4
02/01:00pm 12.6 8.8 11.3 92 0.7 WNW 22 30 12 16 1007.6 - 1.2
02/12:30pm 13.2 4.3 10.7 85 1.3 W 48 70 26 38 1007.9 - 0.2
02/12:26pm 14.3 4.8 9.7 74 2.4 W 50 70 27 38 1007.5 - 0.0
02/12:00pm 18.1 15.0 7.4 49 5.4 W 13 17 7 9 1007.1 1007.2 0.0
02/11:31am 18.6 15.0 6.6 45 6.0 WNW 15 19 8 10 1008.0 - 0.0
02/11:30am 18.6 15.0 6.6 45 6.0 WNW 15 19 8 10 1008.0 - 0.0
02/11:00am 17.8 14.6 7.0 49 5.4 WNW 13 19 7 10 1008.6 - 0.0
02/10:30am 17.0 13.8 6.7 50 5.1 NW 13 17 7 9 1009.0 - 0.0
02/10:00am 15.7 13.1 7.9 59 3.9 NW 11 15 6 8 1009.7 - 0.0
02/09:30am 14.7 12.5 7.9 63 3.4 NW 9 13 5 7 1010.0 - 0.0
02/09:00am 14.4 11.0 7.8 64 3.3 NW 15 17 8 9 1010.4 1010.5 0.0
02/08:30am 14.3 10.8 7.4 63 3.4 NW 15 17 8 9 1010.5 - 0.0
02/08:00am 13.8 9.7 7.7 66 3.0 WNW 19 26 10 14 1010.3 - 0.0
02/07:30am 14.1 9.6 7.1 62 3.4 WNW 20 28 11 15 1010.1 - 0.0
02/07:00am 12.7 10.0 8.9 78 1.9 W 13 17 7 9 1009.8 - 0.0
02/06:30am 12.5 10.6 9.1 80 1.7 NNW 9 11 5 6 1009.3 - 0.0
02/06:00am 13.1 10.0 8.7 74 2.2 NW 15 19 8 10 1009.1 1009.2 0.0
02/05:30am 12.5 10.2 10.4 87 1.1 W 13 17 7 9 1008.7 - 0.0
02/05:00am 12.4 11.9 9.4 82 1.5 N 2 9 1 5 1008.3 - 0.0
02/04:30am 12.8 11.5 9.2 79 1.8 N 6 7 3 4 1008.4 - 0.0
02/04:00am 13.4 11.5 9.1 75 2.2 N 9 13 5 7 1008.6 - 0.0
02/03:30am 12.8 11.4 9.5 80 1.7 N 7 11 4 6 1008.8 - 0.0
02/03:00am 12.2 11.8 9.9 86 1.2 NW 2 11 1 6 1008.9 1009.0 0.0
02/02:30am 13.1 13.2 10.0 81 1.6 CALM 0 0 0 0 1009.3 - 0.0
02/02:00am 13.1 13.2 10.2 82 1.5 CALM 0 0 0 0 1010.0 - 0.0
02/01:30am 13.6 12.3 10.1 79 1.8 NNE 7 11 4 6 1010.5 - 0.0
02/01:00am 12.9 13.2 10.8 87 1.1 CALM 0 0 0 0 1010.9 - 0.0
02/12:30am 12.5 12.8 11.0 90 0.8 CALM 0 0 0 0 1011.3 - 0.0
02/12:00am 13.4 13.8 11.1 86 1.2 CALM 0 0 0 0 1011.5 1011.6 0.0
 
Date/Time
EST
Temp
°C
App
Temp
°C
Dew
Point
Rel
Hum
%
Delta-T
°C
Wind Press
QNH
hPa
Press
MSL
hPa
Rain
since 9 am
mm
Dir
 
Spd
km/h
Gust
km/h
Spd
kts
Gust
kts
01/11:30pm 13.3 13.6 11.0 86 1.2 CALM 0 0 0 0 1011.9 - 0.0
01/11:00pm 14.3 13.6 11.5 83 1.5 NNE 6 7 3 4 1012.1 - 0.0
01/10:30pm 15.1 13.9 11.6 79 1.9 N 9 11 5 6 1012.2 - 0.0
01/10:00pm 15.6 13.6 11.5 76 2.2 NNE 13 15 7 8 1012.3 - 0.0
01/09:30pm 15.7 14.1 11.6 76 2.2 NNE 11 15 6 8 1012.6 - 0.0
01/09:00pm 16.1 13.8 11.9 76 2.3 NNE 15 20 8 11 1012.8 1012.9 0.0
01/08:30pm 16.0 13.8 12.2 78 2.1 NNE 15 20 8 11 1012.9 - 0.0
01/08:00pm 15.3 14.3 12.4 83 1.6 NNE 9 11 5 6 1012.9 - 0.0
01/07:30pm 15.7 14.8 12.6 82 1.7 N 9 11 5 6 1012.9 - 0.0
01/07:00pm 16.7 15.5 12.7 77 2.2 NNE 11 13 6 7 1012.5 - 0.0
01/06:30pm 17.0 15.3 12.5 75 2.5 NE 13 15 7 8 1012.3 - 0.0
01/06:00pm 17.9 15.8 11.3 65 3.6 ENE 13 17 7 9 1012.2 1012.3 0.0
01/05:30pm 18.9 17.4 9.2 53 5.1 NE 7 11 4 6 1012.2 - 0.0
01/05:00pm 20.4 18.3 8.3 45 6.3 NW 9 13 5 7 1012.1 - 0.0
01/04:30pm 21.6 18.2 7.5 40 7.3 WNW 15 19 8 10 1011.9 - 0.0
01/04:00pm 22.4 18.4 8.1 40 7.5 WNW 19 24 10 13 1011.8 - 0.0
01/03:30pm 22.8 19.3 7.2 36 8.1 NNW 15 20 8 11 1011.7 - 0.0
01/03:00pm 23.4 18.8 6.4 33 8.7 WNW 20 30 11 16 1012.1 1012.2 0.0
01/02:30pm 23.0 16.9 6.4 34 8.5 WNW 28 35 15 19 1012.5 - 0.0
01/02:00pm 23.6 18.3 6.8 34 8.7 NW 24 35 13 19 1013.1 - 0.0
01/01:30pm 23.8 18.0 6.2 32 9.0 WNW 26 35 14 19 1013.5 - 0.0
01/01:00pm 22.6 17.8 5.7 33 8.5 WNW 20 32 11 17 1013.9 - 0.0
01/12:30pm 20.8 18.1 9.1 47 6.2 NW 13 22 7 12 1014.3 - 0.0
01/12:00pm 21.3 18.7 9.3 46 6.4 NNW 13 19 7 10 1014.8 1014.9 0.0
01/11:30am 20.8 18.5 10.3 51 5.7 NNW 13 19 7 10 1015.5 - 0.0
01/11:00am 19.7 16.6 10.2 54 5.1 NW 17 26 9 14 1016.2 - 0.0
01/10:30am 18.7 16.5 10.7 59 4.3 NW 13 17 7 9 1016.8 - 0.0
01/10:00am 16.9 14.4 10.9 67 3.2 NW 15 19 8 10 1017.3 - 0.0
01/09:30am 15.7 13.5 10.8 72 2.6 NNW 13 19 7 10 1017.8 - 0.0
01/09:00am 14.4 11.4 10.6 78 2.0 NW 17 22 9 12 1018.1 1018.2 0.2
01/08:30am 13.0 9.5 10.1 82 1.5 NW 19 26 10 14 1018.1 - 0.2
01/08:00am 11.8 9.4 10.2 90 0.8 NW 13 17 7 9 1017.9 - 0.2
01/07:30am 10.6 9.0 10.2 97 0.2 NW 9 11 5 6 1017.8 - 0.2
01/07:00am 9.5 8.0 9.3 99 0.1 NNW 7 9 4 5 1017.8 - 0.2
01/06:30am 8.5 6.8 8.3 99 0.1 NNW 7 9 4 5 1017.6 - 0.2
01/06:00am 8.1 5.1 7.7 97 0.2 WNW 13 15 7 8 1017.4 1017.5 0.2
01/05:30am 7.6 5.3 7.4 99 0.1 NW 9 11 5 6 1017.0 - 0.2
01/05:00am 7.3 5.3 6.9 97 0.2 NW 7 7 4 4 1016.8 - 0.2
01/04:58am 7.1 4.9 6.4 95 0.3 NW 7 7 4 4 1016.8 - 0.2
01/04:30am 6.6 4.5 6.6 100 0.0 WNW 7 9 4 5 1016.7 - 0.2
01/04:00am 6.6 5.8 6.6 100 0.0 CALM 0 0 0 0 1016.3 - 0.2
01/03:32am 6.8 6.0 6.6 99 0.1 CALM 0 0 0 0 1016.4 - 0.2
01/03:30am 6.8 6.0 6.6 99 0.1 CALM 0 0 0 0 1016.5 - 0.2
01/03:22am 6.8 6.1 6.8 100 0.0 CALM 0 0 0 0 1016.5 - 0.2
01/03:15am 7.0 6.2 6.6 97 0.2 CALM 0 0 0 0 1016.6 - 0.2
01/03:14am 6.9 6.1 6.7 99 0.1 CALM 0 0 0 0 1016.6 - 0.2
01/03:01am 7.0 6.3 6.8 99 0.1 CALM 0 0 0 0 1016.7 - 0.2
01/03:00am 7.0 6.3 6.8 99 0.1 CALM 0 0 0 0 1016.7 1016.8 0.2
01/02:53am 6.7 5.9 6.7 100 0.0 CALM 0 0 0 0 1016.8 - 0.2
01/02:30am 7.6 7.0 7.6 100 0.0 CALM 0 0 0 0 1017.0 - 0.2
01/02:00am 7.3 6.7 7.3 100 0.0 CALM 0 0 0 0 1017.2 - 0.2
01/01:30am 7.8 7.2 7.6 99 0.1 CALM 0 0 0 0 1017.5 - 0.2
01/01:29am 7.8 7.2 7.6 99 0.1 CALM 0 0 0 0 1017.5 - 0.2
01/01:14am 8.4 7.9 7.8 96 0.3 CALM 0 0 0 0 1017.7 - 0.2
01/01:12am 8.3 7.8 7.7 96 0.3 CALM 0 0 0 0 1017.7 - 0.2
01/01:01am 7.9 7.4 7.7 99 0.1 CALM 0 0 0 0 1017.8 - 0.2
01/01:00am 8.0 7.4 7.6 97 0.2 CALM 0 0 0 0 1017.8 - 0.2
01/12:40am 8.5 7.7 8.1 97 0.2 N 2 6 1 3 1017.8 - 0.2
01/12:30am 8.1 6.9 8.1 100 0.0 N 4 7 2 4 1017.9 - 0.2
01/12:22am 8.4 7.9 7.8 96 0.3 CALM 0 6 0 3 1017.9 - 0.2
01/12:17am 8.8 8.4 8.2 96 0.3 CALM 0 0 0 0 1017.9 - 0.2
01/12:02am 8.5 8.1 8.1 97 0.2 CALM 0 0 0 0 1017.9 - 0.2
01/12:01am 8.6 8.1 8.0 96 0.3 CALM 0 0 0 0 1017.9 - 0.2
01/12:00am 8.6 8.2 8.2 97 0.2 CALM 0 0 0 0 1017.9 1018.0 0.2
 
Date/Time
EST
Temp
°C
App
Temp
°C
Dew
Point
Rel
Hum
%
Delta-T
°C
Wind Press
QNH
hPa
Press
MSL
hPa
Rain
since 9 am
mm
Dir
 
Spd
km/h
Gust
km/h
Spd
kts
Gust
kts
31/11:45pm 8.7 8.4 8.5 99 0.1 CALM 0 0 0 0 1018.0 - 0.2
31/11:44pm 8.9 8.6 8.5 97 0.2 CALM 0 0 0 0 1018.0 - 0.2
31/11:41pm 8.9 8.5 8.3 96 0.3 CALM 0 0 0 0 1018.0 - 0.2
31/11:38pm 8.9 8.6 8.5 97 0.2 CALM 0 0 0 0 1018.0 - 0.2
31/11:36pm 9.1 8.8 8.5 96 0.3 CALM 0 0 0 0 1018.0 - 0.2
31/11:34pm 9.0 8.6 8.4 96 0.3 CALM 0 0 0 0 1018.0 - 0.2
31/11:32pm 8.9 8.5 8.3 96 0.3 CALM 0 0 0 0 1018.0 - 0.2
31/11:30pm 8.8 8.4 8.4 97 0.2 CALM 0 0 0 0 1018.0 - 0.2
31/11:11pm 9.8 9.6 9.2 96 0.3 CALM 0 0 0 0 1018.2 - 0.2
31/11:07pm 9.9 9.8 9.3 96 0.3 CALM 0 0 0 0 1018.2 - 0.2
31/11:00pm 9.8 9.6 9.2 96 0.3 CALM 0 0 0 0 1018.2 - 0.2
31/10:30pm 10.1 10.0 9.3 95 0.4 CALM 0 6 0 3 1018.2 - 0.2
31/10:00pm 10.6 9.4 10.2 97 0.2 N 7 9 4 5 1018.5 - 0.2
31/09:30pm 11.0 9.3 10.0 93 0.5 NNW 9 11 5 6 1018.5 - 0.2
31/09:00pm 10.2 10.0 9.2 93 0.5 CALM 0 0 0 0 1018.5 1018.6 0.2
31/08:30pm 11.1 10.0 10.5 96 0.3 NW 7 9 4 5 1018.2 - 0.2
31/08:00pm 11.8 11.4 11.0 95 0.4 ENE 4 7 2 4 1018.1 - 0.2
31/07:30pm 12.3 11.5 11.0 92 0.7 NNE 6 7 3 4 1018.1 - 0.2
31/07:00pm 13.9 13.1 11.8 87 1.1 ENE 7 9 4 5 1018.0 - 0.2
31/06:30pm 14.5 13.8 11.9 84 1.4 ENE 7 9 4 5 1017.8 - 0.2
31/06:00pm 15.6 14.4 11.7 77 2.1 E 9 11 5 6 1017.7 1017.8 0.2
31/05:30pm 16.4 14.9 11.8 74 2.5 ESE 11 15 6 8 1017.6 - 0.2
31/05:00pm 17.3 15.1 12.0 71 2.9 SE 15 17 8 9 1017.6 - 0.2
31/04:30pm 17.9 15.0 11.0 64 3.7 SSE 17 22 9 12 1017.5 - 0.2
31/04:00pm 18.4 15.2 11.2 63 3.9 SSE 19 22 10 12 1017.4 - 0.2
31/03:30pm 18.5 15.3 11.3 63 3.9 SSE 19 26 10 14 1017.4 - 0.2
31/03:00pm 19.0 15.6 11.1 60 4.3 SSE 20 26 11 14 1017.4 1017.5 0.2
31/02:30pm 19.7 16.3 11.1 57 4.7 SSE 20 24 11 13 1017.6 - 0.2
31/02:00pm 19.2 15.6 10.7 58 4.6 SSE 20 28 11 15 1017.8 - 0.2
31/01:30pm 19.1 15.2 10.8 58 4.5 SSE 22 28 12 15 1018.2 - 0.2
31/01:00pm 19.3 15.5 11.2 59 4.4 SSE 22 30 12 16 1018.4 - 0.2
31/12:30pm 19.1 16.0 10.3 56 4.7 S 17 26 9 14 1018.8 - 0.2
31/12:00pm 19.1 16.0 10.3 56 4.7 SSW 17 26 9 14 1019.2 1019.3 0.2
31/11:30am 18.7 15.7 10.5 59 4.4 SW 17 24 9 13 1019.6 - 0.2
31/11:00am 18.4 15.4 10.6 60 4.2 SW 17 26 9 14 1019.8 - 0.2
31/10:30am 17.9 14.8 10.4 61 4.0 SW 17 26 9 14 1020.2 - 0.0
31/10:00am 17.6 14.2 10.7 64 3.7 SW 19 26 10 14 1020.5 - 0.0
31/09:30am 17.3 13.9 10.5 64 3.6 SW 19 24 10 13 1020.7 - 0.0
31/09:00am 16.6 13.6 10.8 68 3.1 SW 17 26 9 14 1020.8 1020.9 0.4
31/08:30am 15.7 12.8 11.0 73 2.5 W 17 20 9 11 1020.8 - 0.4
31/08:00am 14.5 12.4 11.3 81 1.7 WNW 13 19 7 10 1020.8 - 0.4
31/07:30am 12.9 10.4 11.2 89 0.9 WNW 15 17 8 9 1020.7 - 0.4

Other Formats:

Comma delimited format used in spreadsheet applications
http://www.bom.gov.au/fwo/IDN60801/IDN60801.94776.axf

JavaScript Object Notation format (JSON) in row-major order
http://www.bom.gov.au/fwo/IDN60801/IDN60801.94776.json